createdAt,value
2018-05-07T00:01:28.472Z,18.67
2018-05-07T00:03:56.089Z,18.58
2018-05-07T00:06:23.633Z,18.59
2018-05-07T00:08:51.192Z,18.63
2018-05-07T00:11:18.761Z,18.65
2018-05-07T00:13:46.412Z,18.62
2018-05-07T00:16:13.986Z,18.60
2018-05-07T00:18:41.552Z,18.53
2018-05-07T00:21:09.173Z,18.50
2018-05-07T00:23:36.751Z,18.51
2018-05-07T00:26:04.343Z,18.44
2018-05-07T00:28:31.969Z,18.45
2018-05-07T00:30:59.601Z,18.46
2018-05-07T00:33:27.168Z,18.45
2018-05-07T00:35:54.788Z,18.48
2018-05-07T00:38:22.400Z,18.49
2018-05-07T00:40:49.943Z,18.47
2018-05-07T00:43:17.509Z,18.46
2018-05-07T00:45:45.081Z,18.41
2018-05-07T00:48:12.649Z,18.37
2018-05-07T00:50:40.308Z,18.33
2018-05-07T00:53:07.877Z,18.34
2018-05-07T00:55:35.595Z,18.33
2018-05-07T00:58:03.157Z,18.31
2018-05-07T01:00:30.739Z,18.31
2018-05-07T01:02:58.308Z,18.25
2018-05-07T01:05:25.877Z,18.18
2018-05-07T01:07:53.496Z,18.15
2018-05-07T01:10:21.050Z,18.10
2018-05-07T01:12:48.708Z,18.08
2018-05-07T01:15:16.340Z,18.03
2018-05-07T01:17:43.962Z,17.98
2018-05-07T01:20:11.581Z,17.96
2018-05-07T01:22:39.139Z,17.95
2018-05-07T01:25:06.765Z,17.93
2018-05-07T01:27:34.336Z,17.98
2018-05-07T01:30:01.950Z,17.97
2018-05-07T01:32:29.530Z,18.02
2018-05-07T01:34:57.088Z,18.04
2018-05-07T01:37:24.708Z,18.07
2018-05-07T01:39:52.272Z,18.03
2018-05-07T01:42:19.837Z,17.97
2018-05-07T01:44:47.416Z,17.97
2018-05-07T01:47:14.976Z,17.99
2018-05-07T01:49:42.619Z,17.93
2018-05-07T01:52:10.180Z,17.85
2018-05-07T01:54:37.792Z,17.87
2018-05-07T01:57:05.351Z,17.79
2018-05-07T01:59:32.908Z,17.77
2018-05-07T02:02:00.480Z,17.75
2018-05-07T02:04:28.049Z,17.71
2018-05-07T02:06:55.617Z,17.70
2018-05-07T02:09:23.233Z,17.75
2018-05-07T02:11:50.900Z,17.77
2018-05-07T02:14:18.456Z,17.76
2018-05-07T02:16:46.016Z,17.80
2018-05-07T02:19:13.581Z,17.80
2018-05-07T02:21:41.140Z,17.81
2018-05-07T02:24:08.694Z,17.83
2018-05-07T02:26:36.314Z,17.84
2018-05-07T02:29:03.955Z,17.84
2018-05-07T02:31:31.587Z,17.88
2018-05-07T02:33:59.153Z,17.91
2018-05-07T02:36:26.814Z,17.92
2018-05-07T02:38:54.464Z,17.91
2018-05-07T02:41:22.146Z,17.92
2018-05-07T02:43:49.709Z,17.92
2018-05-07T02:46:17.277Z,17.93
2018-05-07T02:48:44.902Z,17.91
2018-05-07T02:51:12.441Z,17.93
2018-05-07T02:53:40.008Z,17.96
2018-05-07T02:56:07.629Z,17.96
2018-05-07T02:58:35.276Z,17.99
2018-05-07T03:01:02.945Z,17.99
2018-05-07T03:03:30.508Z,17.99
2018-05-07T03:05:58.143Z,17.99
2018-05-07T03:08:25.713Z,17.94
2018-05-07T03:10:53.288Z,17.92
2018-05-07T03:13:20.912Z,17.87
2018-05-07T03:15:48.522Z,17.86
2018-05-07T03:18:16.134Z,17.83
2018-05-07T03:20:43.699Z,17.82
2018-05-07T03:23:11.283Z,17.84
2018-05-07T03:25:38.840Z,17.80
2018-05-07T03:28:06.419Z,17.80
2018-05-07T03:30:33.981Z,17.83
2018-05-07T03:33:01.657Z,17.86
2018-05-07T03:35:29.202Z,17.87
2018-05-07T03:37:56.827Z,17.92
2018-05-07T03:40:24.489Z,17.98
2018-05-07T03:42:52.013Z,18.04
2018-05-07T03:45:19.652Z,18.15
2018-05-07T03:47:47.216Z,18.21
2018-05-07T03:50:14.780Z,18.29
2018-05-07T03:52:42.349Z,18.34
2018-05-07T03:55:09.917Z,18.39
2018-05-07T03:57:37.544Z,18.51
2018-05-07T04:00:05.109Z,18.61
2018-05-07T04:02:32.712Z,18.74
2018-05-07T04:05:00.353Z,18.90
2018-05-07T04:07:27.993Z,19.00
2018-05-07T04:09:55.556Z,19.09
2018-05-07T04:12:24.081Z,19.24
2018-05-07T04:14:51.644Z,19.41
2018-05-07T04:17:31.105Z,19.71
2018-05-07T04:23:10.364Z,20.70
2018-05-07T04:25:37.983Z,22.00
2018-05-07T04:28:05.549Z,23.16
2018-05-07T04:30:33.104Z,24.19
2018-05-07T04:33:00.669Z,24.44
2018-05-07T04:35:28.214Z,24.28
2018-05-07T04:37:55.786Z,23.72
2018-05-07T04:40:23.443Z,23.30
2018-05-07T04:42:51.141Z,23.77
2018-05-07T04:45:18.714Z,24.66
2018-05-07T04:47:46.335Z,25.48
2018-05-07T04:50:13.897Z,26.10
2018-05-07T04:52:41.463Z,25.56
2018-05-07T04:55:09.156Z,24.41
2018-05-07T04:57:36.688Z,23.53
2018-05-07T05:00:04.345Z,22.63
2018-05-07T05:02:31.897Z,22.28
2018-05-07T05:04:59.525Z,22.14
2018-05-07T05:07:27.168Z,21.90
2018-05-07T05:09:54.849Z,21.44
2018-05-07T05:12:22.404Z,21.13
2018-05-07T05:14:49.965Z,21.03
2018-05-07T05:17:17.588Z,21.02
2018-05-07T05:19:45.208Z,21.17
2018-05-07T05:22:12.805Z,21.36
2018-05-07T05:24:40.370Z,21.50
2018-05-07T05:27:07.994Z,21.72
2018-05-07T05:29:35.556Z,21.89
2018-05-07T05:32:03.173Z,22.00
2018-05-07T05:34:30.784Z,22.04
2018-05-07T05:36:58.458Z,22.10
2018-05-07T05:39:26.077Z,22.23
2018-05-07T05:41:53.649Z,22.18
2018-05-07T05:44:21.269Z,21.96
2018-05-07T05:46:48.846Z,21.75
2018-05-07T05:49:16.399Z,21.61
2018-05-07T05:51:44.006Z,21.43
2018-05-07T05:54:11.572Z,21.44
2018-05-07T05:56:39.131Z,21.50
2018-05-07T05:59:06.697Z,21.54
2018-05-07T06:01:34.279Z,21.49
2018-05-07T06:04:01.947Z,21.48
2018-05-07T06:06:29.496Z,21.42
2018-05-07T06:08:57.256Z,21.60
2018-05-07T06:11:24.783Z,21.60
2018-05-07T06:13:52.355Z,21.53
2018-05-07T06:16:19.925Z,21.54
2018-05-07T06:18:47.487Z,21.62
2018-05-07T06:21:15.097Z,21.68
2018-05-07T06:23:42.640Z,21.70
2018-05-07T06:26:10.315Z,21.79
2018-05-07T06:28:37.902Z,21.83
2018-05-07T06:31:05.465Z,21.99
2018-05-07T06:33:33.033Z,21.93
2018-05-07T06:36:00.645Z,21.95
2018-05-07T06:38:28.321Z,22.06
2018-05-07T06:40:55.882Z,22.20
2018-05-07T06:43:23.495Z,22.31
2018-05-07T06:45:51.143Z,22.29
2018-05-07T06:48:18.709Z,22.16
2018-05-07T06:50:46.329Z,22.00
2018-05-07T06:53:13.947Z,22.01
2018-05-07T06:55:41.548Z,22.06
2018-05-07T06:58:09.120Z,22.21
2018-05-07T07:00:36.659Z,22.30
2018-05-07T07:03:04.332Z,22.49
2018-05-07T07:05:31.889Z,22.47
2018-05-07T07:07:59.526Z,22.53
2018-05-07T07:10:27.103Z,22.71
2018-05-07T07:12:54.641Z,22.92
2018-05-07T07:15:22.221Z,23.12
2018-05-07T07:17:49.837Z,23.10
2018-05-07T07:20:17.464Z,23.18
2018-05-07T07:22:45.027Z,23.36
2018-05-07T07:25:12.586Z,23.49
2018-05-07T07:27:40.204Z,23.49
2018-05-07T07:30:07.756Z,23.59
2018-05-07T07:32:35.333Z,23.62
2018-05-07T07:35:02.902Z,23.59
2018-05-07T07:37:30.601Z,23.69
2018-05-07T07:39:58.221Z,23.60
2018-05-07T07:42:25.772Z,23.64
2018-05-07T07:44:53.340Z,23.82
2018-05-07T07:47:20.964Z,24.00
2018-05-07T07:49:48.560Z,23.85
2018-05-07T07:52:16.116Z,23.92
2018-05-07T07:54:43.720Z,24.19
2018-05-07T07:57:11.276Z,24.46
2018-05-07T07:59:38.891Z,24.65
2018-05-07T08:02:06.513Z,24.62
2018-05-07T08:04:34.065Z,24.74
2018-05-07T08:07:01.699Z,24.84
2018-05-07T08:09:29.320Z,25.50
2018-05-07T08:11:56.931Z,26.30
2018-05-07T08:14:24.552Z,26.43
2018-05-07T08:16:52.100Z,26.42
2018-05-07T08:19:19.675Z,26.01
2018-05-07T08:21:47.236Z,26.12
2018-05-07T08:24:14.883Z,26.61
2018-05-07T08:26:42.481Z,26.88
2018-05-07T08:29:10.096Z,27.25
2018-05-07T08:31:37.653Z,27.37
2018-05-07T08:34:05.225Z,27.38
2018-05-07T08:36:32.863Z,27.20
2018-05-07T08:39:00.478Z,26.88
2018-05-07T08:41:28.048Z,26.78
2018-05-07T08:43:55.609Z,26.85
2018-05-07T08:46:23.228Z,26.87
2018-05-07T08:48:50.765Z,27.06
2018-05-07T08:51:18.373Z,27.12
2018-05-07T08:53:45.936Z,26.93
2018-05-07T08:56:13.498Z,26.56
2018-05-07T08:58:41.178Z,26.85
2018-05-07T09:01:08.741Z,26.74
2018-05-07T09:03:36.385Z,26.65
2018-05-07T09:06:04.002Z,26.70
2018-05-07T09:08:31.618Z,26.66
2018-05-07T09:10:59.180Z,26.82
2018-05-07T09:13:26.817Z,26.58
2018-05-07T09:15:54.353Z,26.49
2018-05-07T09:18:22.028Z,26.39
2018-05-07T09:20:49.671Z,26.31
2018-05-07T09:23:17.227Z,26.19
2018-05-07T09:25:44.961Z,25.92
2018-05-07T09:28:12.520Z,25.58
2018-05-07T09:30:40.134Z,25.29
2018-05-07T09:33:07.693Z,25.01
2018-05-07T09:35:35.309Z,24.76
2018-05-07T09:38:02.920Z,24.83
2018-05-07T09:40:30.473Z,24.91
2018-05-07T09:42:58.101Z,24.84
2018-05-07T09:45:25.680Z,24.73
2018-05-07T09:47:53.240Z,24.64
2018-05-07T09:50:20.816Z,24.50
2018-05-07T09:52:48.433Z,24.48
2018-05-07T09:55:16.110Z,24.45
2018-05-07T09:58:09.454Z,24.32
2018-05-07T10:00:37.927Z,24.25
2018-05-07T10:03:05.500Z,24.31
2018-05-07T10:05:33.096Z,24.32
2018-05-07T10:08:00.722Z,24.42
2018-05-07T10:10:28.345Z,24.58
2018-05-07T10:12:55.912Z,24.59
2018-05-07T10:15:23.534Z,24.76
2018-05-07T10:17:51.133Z,24.78
2018-05-07T10:20:18.764Z,24.74
2018-05-07T10:22:46.381Z,24.83
2018-05-07T10:25:13.951Z,24.99
2018-05-07T10:27:41.574Z,24.97
2018-05-07T10:30:09.190Z,24.93
2018-05-07T10:32:36.744Z,24.97
2018-05-07T10:35:04.389Z,24.85
2018-05-07T10:37:31.940Z,24.73
2018-05-07T10:39:59.616Z,24.78
2018-05-07T10:42:27.169Z,24.96
2018-05-07T10:44:54.785Z,25.09
2018-05-07T10:47:22.387Z,25.21
2018-05-07T10:49:50.005Z,25.33
2018-05-07T10:52:17.681Z,25.23
2018-05-07T10:54:45.311Z,25.09
2018-05-07T10:57:12.946Z,25.16
2018-05-07T10:59:40.561Z,25.27
2018-05-07T11:02:08.112Z,25.48
2018-05-07T11:04:35.763Z,25.43
2018-05-07T11:07:03.381Z,25.44
2018-05-07T11:09:31.021Z,25.57
2018-05-07T11:11:58.637Z,25.83
2018-05-07T11:14:26.259Z,25.97
2018-05-07T11:16:53.873Z,26.08
2018-05-07T11:19:21.488Z,26.12
2018-05-07T11:21:49.106Z,25.92
2018-05-07T11:24:16.668Z,26.09
2018-05-07T11:26:44.230Z,26.24
2018-05-07T11:29:11.896Z,26.50
2018-05-07T11:31:39.477Z,26.52
2018-05-07T11:34:07.028Z,26.91
2018-05-07T11:36:34.699Z,26.99
2018-05-07T11:39:02.294Z,27.16
2018-05-07T11:41:29.832Z,27.27
2018-05-07T11:43:57.392Z,27.41
2018-05-07T11:46:25.016Z,27.37
2018-05-07T11:48:52.577Z,27.48
2018-05-07T11:51:20.189Z,28.48
2018-05-07T11:53:47.802Z,29.08
2018-05-07T11:56:15.341Z,29.25
2018-05-07T11:58:42.928Z,29.34
2018-05-07T12:01:10.492Z,29.86
2018-05-07T12:03:38.062Z,29.84
2018-05-07T12:06:05.682Z,29.85
2018-05-07T12:08:33.253Z,30.57
2018-05-07T12:11:00.816Z,30.75
2018-05-07T12:13:28.392Z,30.79
2018-05-07T12:15:55.960Z,30.49
2018-05-07T12:18:23.544Z,30.11
2018-05-07T12:20:51.109Z,29.98
2018-05-07T12:23:18.790Z,29.43
2018-05-07T12:25:46.316Z,29.13
2018-05-07T12:28:13.933Z,30.03
2018-05-07T12:30:41.505Z,31.13
2018-05-07T12:33:09.056Z,31.29
2018-05-07T12:35:36.616Z,31.81
2018-05-07T12:38:04.172Z,33.06
2018-05-07T12:40:31.789Z,34.05
2018-05-07T12:42:59.340Z,34.86
2018-05-07T12:45:26.883Z,34.94
2018-05-07T12:47:54.444Z,35.27
2018-05-07T12:50:21.998Z,35.69
2018-05-07T12:52:49.630Z,36.32
2018-05-07T12:55:17.202Z,36.65
2018-05-07T12:57:44.827Z,36.73
2018-05-07T13:00:12.380Z,36.75
2018-05-07T13:02:39.946Z,37.17
2018-05-07T13:05:07.568Z,37.10
2018-05-07T13:07:35.125Z,36.43
2018-05-07T13:10:02.712Z,35.92
2018-05-07T13:12:30.331Z,36.27
2018-05-07T13:14:57.949Z,36.32
2018-05-07T13:17:25.509Z,35.67
2018-05-07T13:19:53.072Z,35.57
2018-05-07T13:22:20.637Z,35.90
2018-05-07T13:24:48.281Z,36.63
2018-05-07T13:27:15.914Z,36.75
2018-05-07T13:29:43.534Z,36.99
2018-05-07T13:32:15.475Z,36.33
2018-05-07T13:34:43.241Z,35.97
2018-05-07T13:37:10.792Z,36.39
2018-05-07T13:39:38.402Z,35.18
2018-05-07T13:42:05.952Z,34.78
2018-05-07T13:44:33.595Z,35.15
2018-05-07T13:47:01.153Z,35.17
2018-05-07T13:49:28.837Z,34.71
2018-05-07T13:51:56.453Z,34.45
2018-05-07T13:54:24.012Z,34.04
2018-05-07T13:56:51.678Z,33.17
2018-05-07T13:59:19.257Z,32.42
2018-05-07T14:01:46.868Z,31.51
2018-05-07T14:04:14.415Z,30.46
2018-05-07T14:06:42.033Z,29.68
2018-05-07T14:09:09.598Z,29.06
2018-05-07T14:11:37.218Z,28.52
2018-05-07T14:14:04.785Z,28.27
2018-05-07T14:16:32.364Z,28.11
2018-05-07T14:19:00.035Z,27.98
2018-05-07T14:21:27.662Z,27.85
2018-05-07T14:23:55.221Z,27.87
2018-05-07T14:26:22.831Z,27.75
2018-05-07T14:28:50.440Z,27.74
2018-05-07T14:31:18.000Z,27.35
2018-05-07T14:33:45.625Z,27.15
2018-05-07T14:36:13.233Z,26.97
2018-05-07T14:38:40.783Z,26.90
2018-05-07T14:41:08.354Z,26.86
2018-05-07T14:43:35.984Z,26.79
2018-05-07T14:46:03.597Z,26.69
2018-05-07T14:48:31.167Z,26.59
2018-05-07T14:50:58.781Z,26.26
2018-05-07T14:53:26.401Z,26.03
2018-05-07T14:55:53.993Z,25.78
2018-05-07T14:58:21.625Z,25.71
2018-05-07T15:00:49.210Z,25.72
2018-05-07T15:03:16.811Z,25.78
2018-05-07T15:05:44.436Z,25.81
2018-05-07T15:08:12.052Z,25.85
2018-05-07T15:10:39.772Z,25.87
2018-05-07T15:13:07.388Z,25.71
2018-05-07T15:15:34.956Z,25.38
2018-05-07T15:18:02.596Z,24.99
2018-05-07T15:20:30.165Z,24.76
2018-05-07T15:22:57.836Z,24.53
2018-05-07T15:25:25.396Z,24.47
2018-05-07T15:27:53.100Z,24.50
2018-05-07T15:30:20.692Z,24.57
2018-05-07T15:32:48.323Z,24.61
2018-05-07T15:35:15.976Z,24.61
2018-05-07T15:37:43.606Z,24.48
2018-05-07T15:40:11.272Z,24.43
2018-05-07T15:42:38.844Z,24.39
2018-05-07T15:45:06.474Z,24.42
2018-05-07T15:47:34.083Z,24.38
2018-05-07T15:50:01.674Z,24.39
2018-05-07T15:52:29.360Z,24.38
2018-05-07T15:54:56.912Z,24.36
2018-05-07T15:57:24.468Z,24.38
2018-05-07T15:59:52.041Z,24.39
2018-05-07T16:02:19.593Z,24.40
2018-05-07T16:04:47.204Z,24.36
2018-05-07T16:07:14.821Z,24.33
2018-05-07T16:09:42.454Z,24.29
2018-05-07T16:12:10.015Z,24.23
2018-05-07T16:14:37.573Z,24.06
2018-05-07T16:17:05.228Z,23.95
2018-05-07T16:19:32.880Z,23.94
2018-05-07T16:22:00.531Z,23.85
2018-05-07T16:24:28.093Z,23.71
2018-05-07T16:26:55.658Z,23.69
2018-05-07T16:29:23.280Z,23.59
2018-05-07T16:31:50.898Z,23.50
2018-05-07T16:34:18.527Z,23.48
2018-05-07T16:36:46.101Z,23.43
2018-05-07T16:39:13.652Z,23.34
2018-05-07T16:41:41.214Z,23.28
2018-05-07T16:44:08.829Z,23.27
2018-05-07T16:46:36.441Z,23.20
2018-05-07T16:49:04.153Z,23.14
2018-05-07T16:51:31.707Z,23.05
2018-05-07T16:53:59.336Z,22.96
2018-05-07T16:56:26.892Z,22.86
2018-05-07T16:58:54.463Z,22.79
2018-05-07T17:01:22.088Z,22.73
2018-05-07T17:03:49.763Z,22.63
2018-05-07T17:06:17.342Z,22.54
2018-05-07T17:08:44.896Z,22.43
2018-05-07T17:11:13.348Z,22.34
2018-05-07T17:13:40.931Z,22.23
2018-05-07T17:16:08.510Z,22.13
2018-05-07T17:18:36.073Z,22.03
2018-05-07T17:21:03.687Z,21.95
2018-05-07T17:23:31.247Z,21.87
2018-05-07T17:25:58.806Z,21.87
2018-05-07T17:28:26.362Z,21.88
2018-05-07T17:30:53.915Z,21.98
2018-05-07T17:33:21.481Z,22.03
2018-05-07T17:35:49.101Z,22.08
2018-05-07T17:38:16.746Z,22.11
2018-05-07T17:40:44.308Z,22.10
2018-05-07T17:43:11.946Z,22.09
2018-05-07T17:48:51.377Z,21.96
2018-05-07T17:51:18.848Z,21.81
2018-05-07T17:53:46.483Z,21.69
2018-05-07T17:56:14.101Z,21.56
2018-05-07T17:58:41.664Z,21.45
2018-05-07T18:01:09.353Z,21.40
2018-05-07T18:03:36.915Z,21.38
2018-05-07T18:06:04.544Z,21.34
2018-05-07T18:08:32.102Z,21.37
2018-05-07T18:10:59.776Z,21.32
2018-05-07T18:13:27.405Z,21.29
2018-05-07T18:15:55.020Z,21.21
2018-05-07T18:18:22.580Z,21.11
2018-05-07T18:20:50.138Z,21.00
2018-05-07T18:23:17.748Z,20.90
2018-05-07T18:25:45.304Z,20.81
2018-05-07T18:28:13.005Z,20.74
2018-05-07T18:30:40.557Z,20.65
2018-05-07T18:33:08.165Z,20.55
2018-05-07T18:35:35.789Z,20.47
2018-05-07T18:38:03.435Z,20.39
2018-05-07T18:40:31.062Z,20.28
2018-05-07T18:42:58.646Z,20.20
2018-05-07T18:45:26.321Z,20.17
2018-05-07T18:47:53.877Z,20.11
2018-05-07T18:50:21.630Z,20.13
2018-05-07T18:52:49.262Z,20.14
2018-05-07T18:55:16.822Z,20.15
2018-05-07T18:57:44.397Z,20.15
2018-05-07T19:00:12.061Z,20.13
2018-05-07T19:02:39.685Z,20.12
2018-05-07T19:05:07.284Z,20.08
2018-05-07T19:07:34.856Z,20.10
2018-05-07T19:10:02.443Z,20.07
2018-05-07T19:12:30.060Z,20.05
2018-05-07T19:14:57.681Z,20.03
2018-05-07T19:17:25.236Z,19.99
2018-05-07T19:19:52.950Z,19.95
2018-05-07T19:22:20.597Z,19.90
2018-05-07T19:24:48.225Z,19.83
2018-05-07T19:27:15.849Z,19.77
2018-05-07T19:29:43.408Z,19.67
2018-05-07T19:32:10.979Z,19.57
2018-05-07T19:34:38.554Z,19.47
2018-05-07T19:37:06.263Z,19.36
2018-05-07T19:39:33.893Z,19.30
2018-05-07T19:42:01.457Z,19.22
2018-05-07T19:44:29.016Z,19.16
2018-05-07T19:46:56.629Z,19.07
2018-05-07T19:49:24.200Z,19.03
2018-05-07T19:51:51.798Z,19.00
2018-05-07T19:54:19.393Z,18.99
2018-05-07T19:56:47.011Z,18.96
2018-05-07T19:59:14.570Z,18.94
2018-05-07T20:01:42.140Z,18.92
2018-05-07T20:04:09.767Z,18.92
2018-05-07T20:06:37.341Z,18.91
2018-05-07T20:09:04.979Z,18.92
2018-05-07T20:11:32.536Z,18.92
2018-05-07T20:14:00.103Z,18.93
2018-05-07T20:16:27.683Z,18.93
2018-05-07T20:18:55.298Z,18.88
2018-05-07T20:21:22.852Z,18.81
2018-05-07T20:23:50.410Z,18.71
2018-05-07T20:26:17.977Z,18.58
2018-05-07T20:28:45.540Z,18.48
2018-05-07T20:31:13.189Z,18.38
2018-05-07T20:33:40.736Z,18.29
2018-05-07T20:36:08.299Z,18.21
2018-05-07T20:38:35.864Z,18.14
2018-05-07T20:41:03.426Z,18.07
2018-05-07T20:43:30.993Z,17.99
2018-05-07T20:45:58.554Z,17.93
2018-05-07T20:48:26.174Z,17.88
2018-05-07T20:50:53.732Z,17.80
2018-05-07T20:53:21.295Z,17.73
2018-05-07T20:55:48.880Z,17.65
2018-05-07T20:58:16.541Z,17.60
2018-05-07T21:00:44.108Z,17.54
2018-05-07T21:03:11.677Z,17.50
2018-05-07T21:05:39.293Z,17.44
2018-05-07T21:08:06.925Z,17.37
2018-05-07T21:10:34.508Z,17.30
2018-05-07T21:13:02.147Z,17.24
2018-05-07T21:15:29.804Z,17.20
2018-05-07T21:17:57.431Z,17.18
2018-05-07T21:20:25.000Z,17.18
2018-05-07T21:22:52.608Z,17.19
2018-05-07T21:25:20.288Z,17.19
2018-05-07T21:27:47.914Z,17.24
2018-05-07T21:30:15.476Z,17.34
2018-05-07T21:32:43.049Z,17.43
2018-05-07T21:35:10.617Z,17.53
2018-05-07T21:37:38.289Z,17.63
2018-05-07T21:40:05.951Z,17.68
2018-05-07T21:42:33.508Z,17.72
2018-05-07T21:45:01.154Z,17.74
2018-05-07T21:47:28.772Z,17.77
2018-05-07T21:49:56.384Z,17.82
2018-05-07T21:52:23.944Z,17.85
2018-05-07T21:54:51.562Z,17.85
2018-05-07T21:57:19.180Z,17.86
2018-05-07T21:59:46.793Z,17.88
2018-05-07T22:02:14.420Z,17.85
2018-05-07T22:04:42.015Z,17.78
2018-05-07T22:07:09.615Z,17.78
2018-05-07T22:09:37.245Z,17.77
2018-05-07T22:12:04.813Z,17.77
2018-05-07T22:14:32.385Z,17.78
2018-05-07T22:16:59.980Z,17.80
2018-05-07T22:19:27.536Z,17.83
2018-05-07T22:21:55.222Z,17.85
2018-05-07T22:24:22.841Z,17.85
2018-05-07T22:26:50.402Z,17.84
2018-05-07T22:29:18.077Z,17.80
2018-05-07T22:31:45.742Z,17.70
2018-05-07T22:34:13.312Z,17.65
2018-05-07T22:36:40.961Z,17.63
2018-05-07T22:39:08.565Z,17.64
2018-05-07T22:41:36.108Z,17.67
2018-05-07T22:44:03.672Z,17.69
2018-05-07T22:46:31.216Z,17.70
2018-05-07T22:48:58.804Z,17.66
2018-05-07T22:51:26.380Z,17.61
2018-05-07T22:53:54.008Z,17.56
2018-05-07T22:56:21.580Z,17.50
2018-05-07T22:58:49.140Z,17.43
2018-05-07T23:01:16.752Z,17.37
2018-05-07T23:03:44.364Z,17.30
2018-05-07T23:06:11.921Z,17.20
2018-05-07T23:08:39.488Z,17.14
2018-05-07T23:11:07.100Z,17.08
2018-05-07T23:13:34.709Z,17.03
2018-05-07T23:16:02.324Z,16.99
2018-05-07T23:18:29.857Z,16.94
2018-05-07T23:20:57.420Z,16.88
2018-05-07T23:23:24.980Z,16.82
2018-05-07T23:25:52.584Z,16.72
2018-05-07T23:28:20.205Z,16.66
2018-05-07T23:30:47.765Z,16.58
2018-05-07T23:33:15.340Z,16.53
2018-05-07T23:35:42.965Z,16.47
2018-05-07T23:38:10.554Z,16.42
2018-05-07T23:40:38.108Z,16.35
2018-05-07T23:43:05.729Z,16.27
2018-05-07T23:45:33.324Z,16.21
2018-05-07T23:48:00.901Z,16.13
2018-05-07T23:50:28.512Z,16.06
2018-05-07T23:52:56.134Z,16.01
2018-05-07T23:55:23.697Z,15.93
2018-05-07T23:57:51.263Z,15.90
